EZY464 EGKK-LFRB
Flight info
| Callsign | EZY464 |
|---|---|
| Flight time | 0h 51m |
| Altitude | 27000 |
| Route | IMVUR N63 SAM M195 IBNID/N0448F290 M195 MARUK N621 LELNA DCT BADUR/N0436F280 T120 ANLEV |
| Aircraft | A321/M-SDE3FGHIRWY/LB1 |
Departure
| Time | 2026-04-20 14:51 |
|---|---|
| Airport | London Gatwick Airport (EGKK) |
Arrival
| Time | 2026-04-20 15:43 |
|---|---|
| Airport | Brest Bretagne airport (LFRB) |
| Time | Latitude | Longitude | Altitude | Speed | Heading |
|---|---|---|---|---|---|
| 2026-04-20 14:14 | 51.15926 | -0.17948 | 205 ft | 0 kts | 78° |
| 2026-04-20 14:27 | 51.15926 | -0.17949 | 205 ft | 0 kts | 78° |
| 2026-04-20 14:27 | 51.15926 | -0.17948 | 205 ft | 0 kts | 78° |
| 2026-04-20 14:28 | 51.15926 | -0.17949 | 205 ft | 0 kts | 78° |
| 2026-04-20 14:28 | 51.15926 | -0.17948 | 205 ft | 0 kts | 78° |
| 2026-04-20 14:28 | 51.15926 | -0.17949 | 205 ft | 0 kts | 78° |
| 2026-04-20 14:34 | 51.15925 | -0.17957 | 230 ft | 4 kts | 78° |
| 2026-04-20 14:34 | 51.15920 | -0.17999 | 211 ft | 4 kts | 78° |
| 2026-04-20 14:34 | 51.15914 | -0.18041 | 215 ft | 4 kts | 78° |
| 2026-04-20 14:35 | 51.15909 | -0.18078 | 215 ft | 4 kts | 96° |
| 2026-04-20 14:35 | 51.15920 | -0.18108 | 211 ft | 4 kts | 159° |
| 2026-04-20 14:35 | 51.15935 | -0.18115 | 215 ft | 2 kts | 168° |
| 2026-04-20 14:35 | 51.15941 | -0.18117 | 210 ft | 0 kts | 168° |
| 2026-04-20 14:38 | 51.15924 | -0.18111 | 216 ft | 3 kts | 168° |
| 2026-04-20 14:38 | 51.15906 | -0.18105 | 214 ft | 3 kts | 168° |
| 2026-04-20 14:38 | 51.15886 | -0.18098 | 205 ft | 3 kts | 168° |
| 2026-04-20 14:39 | 51.15864 | -0.18091 | 214 ft | 6 kts | 168° |
| 2026-04-20 14:39 | 51.15816 | -0.18074 | 208 ft | 7 kts | 167° |
| 2026-04-20 14:39 | 51.15775 | -0.18059 | 209 ft | 6 kts | 167° |
| 2026-04-20 14:39 | 51.15732 | -0.18044 | 213 ft | 7 kts | 169° |
| 2026-04-20 14:40 | 51.15692 | -0.18068 | 215 ft | 7 kts | 227° |
| 2026-04-20 14:40 | 51.15676 | -0.18137 | 217 ft | 6 kts | 255° |
| 2026-04-20 14:40 | 51.15667 | -0.18198 | 209 ft | 5 kts | 258° |
| 2026-04-20 14:40 | 51.15660 | -0.18249 | 214 ft | 5 kts | 258° |
| 2026-04-20 14:41 | 51.15650 | -0.18326 | 208 ft | 7 kts | 258° |
| 2026-04-20 14:41 | 51.15640 | -0.18398 | 205 ft | 6 kts | 257° |
| 2026-04-20 14:41 | 51.15627 | -0.18488 | 209 ft | 8 kts | 257° |
| 2026-04-20 14:41 | 51.15615 | -0.18573 | 213 ft | 7 kts | 257° |
| 2026-04-20 14:42 | 51.15604 | -0.18652 | 211 ft | 7 kts | 257° |
| 2026-04-20 14:42 | 51.15593 | -0.18727 | 209 ft | 6 kts | 257° |
| 2026-04-20 14:42 | 51.15581 | -0.18790 | 211 ft | 6 kts | 242° |
| 2026-04-20 14:42 | 51.15550 | -0.18821 | 216 ft | 6 kts | 192° |
| 2026-04-20 14:43 | 51.15514 | -0.18818 | 205 ft | 5 kts | 173° |
| 2026-04-20 14:43 | 51.15462 | -0.18800 | 213 ft | 11 kts | 167° |
| 2026-04-20 14:43 | 51.15370 | -0.18768 | 205 ft | 16 kts | 168° |
| 2026-04-20 14:43 | 51.15255 | -0.18728 | 212 ft | 15 kts | 168° |
| 2026-04-20 14:44 | 51.15154 | -0.18715 | 212 ft | 16 kts | 206° |
| 2026-04-20 14:44 | 51.15108 | -0.18889 | 207 ft | 19 kts | 257° |
| 2026-04-20 14:44 | 51.15077 | -0.19119 | 205 ft | 24 kts | 257° |
| 2026-04-20 14:44 | 51.15038 | -0.19400 | 210 ft | 28 kts | 258° |
| 2026-04-20 14:45 | 51.15007 | -0.19633 | 205 ft | 21 kts | 257° |
| 2026-04-20 14:45 | 51.14972 | -0.19881 | 214 ft | 25 kts | 257° |
| 2026-04-20 14:45 | 51.14931 | -0.20179 | 207 ft | 24 kts | 258° |
| 2026-04-20 14:45 | 51.14908 | -0.20349 | 210 ft | 17 kts | 257° |
| 2026-04-20 14:46 | 51.14878 | -0.20561 | 209 ft | 22 kts | 258° |
| 2026-04-20 14:46 | 51.14842 | -0.20819 | 205 ft | 24 kts | 258° |
| 2026-04-20 14:46 | 51.14814 | -0.21030 | 209 ft | 14 kts | 257° |
| 2026-04-20 14:46 | 51.14788 | -0.21174 | 211 ft | 13 kts | 250° |
| 2026-04-20 14:47 | 51.14767 | -0.21302 | 213 ft | 11 kts | 257° |
| 2026-04-20 14:47 | 51.14732 | -0.21395 | 211 ft | 9 kts | 202° |
| 2026-04-20 14:47 | 51.14677 | -0.21378 | 212 ft | 7 kts | 142° |
| 2026-04-20 14:48 | 51.14639 | -0.21339 | 208 ft | 2 kts | 160° |
| 2026-04-20 14:48 | 51.14621 | -0.21331 | 209 ft | 0 kts | 164° |
| 2026-04-20 14:49 | 51.14604 | -0.21323 | 210 ft | 9 kts | 164° |
| 2026-04-20 14:49 | 51.14538 | -0.21260 | 210 ft | 11 kts | 130° |
| 2026-04-20 14:49 | 51.14526 | -0.21153 | 214 ft | 9 kts | 82° |
| 2026-04-20 14:49 | 51.14533 | -0.21091 | 207 ft | 0 kts | 79° |
| 2026-04-20 14:50 | 51.14557 | -0.20913 | 211 ft | 50 kts | 77° |
| 2026-04-20 14:50 | 51.14683 | -0.20022 | 213 ft | 112 kts | 77° |
| 2026-04-20 14:50 | 51.14885 | -0.18545 | 211 ft | 158 kts | 76° |
| 2026-04-20 14:51 | 51.15109 | -0.16770 | 659 ft | 164 kts | 78° |
| 2026-04-20 14:51 | 51.15342 | -0.15012 | 1313 ft | 163 kts | 77° |
| 2026-04-20 14:51 | 51.15588 | -0.13249 | 1930 ft | 164 kts | 77° |
| 2026-04-20 14:51 | 51.15849 | -0.11393 | 2218 ft | 182 kts | 76° |
| 2026-04-20 14:52 | 51.16139 | -0.09309 | 2404 ft | 203 kts | 76° |
| 2026-04-20 14:52 | 51.16519 | -0.07066 | 2849 ft | 215 kts | 64° |
| 2026-04-20 14:52 | 51.17534 | -0.05344 | 2964 ft | 217 kts | 26° |
| 2026-04-20 14:52 | 51.19016 | -0.05036 | 2981 ft | 221 kts | 352° |
| 2026-04-20 14:53 | 51.20526 | -0.05573 | 2984 ft | 223 kts | 348° |
| 2026-04-20 14:53 | 51.21894 | -0.06753 | 2985 ft | 230 kts | 315° |
| 2026-04-20 14:53 | 51.22666 | -0.09040 | 2998 ft | 252 kts | 281° |
| 2026-04-20 14:53 | 51.22590 | -0.11911 | 2990 ft | 266 kts | 261° |
| 2026-04-20 14:54 | 51.22269 | -0.14850 | 2982 ft | 271 kts | 259° |
| 2026-04-20 14:54 | 51.21912 | -0.17808 | 2981 ft | 271 kts | 260° |
| 2026-04-20 14:54 | 51.21548 | -0.20762 | 2982 ft | 273 kts | 259° |
| 2026-04-20 14:54 | 51.21186 | -0.23739 | 2984 ft | 274 kts | 259° |
| 2026-04-20 14:55 | 51.20829 | -0.26713 | 2979 ft | 272 kts | 259° |
| 2026-04-20 14:55 | 51.20479 | -0.29666 | 2988 ft | 274 kts | 260° |
| 2026-04-20 14:55 | 51.20132 | -0.32635 | 2983 ft | 272 kts | 260° |
| 2026-04-20 14:55 | 51.19785 | -0.35600 | 3016 ft | 274 kts | 259° |
| 2026-04-20 14:56 | 51.19404 | -0.38618 | 3700 ft | 278 kts | 258° |
| 2026-04-20 14:56 | 51.19006 | -0.41641 | 3936 ft | 278 kts | 259° |
| 2026-04-20 14:56 | 51.18603 | -0.44659 | 3987 ft | 278 kts | 258° |
| 2026-04-20 14:56 | 51.18204 | -0.47651 | 3987 ft | 275 kts | 259° |
| 2026-04-20 14:57 | 51.17808 | -0.50651 | 3989 ft | 276 kts | 258° |
| 2026-04-20 14:57 | 51.17359 | -0.53599 | 3989 ft | 274 kts | 250° |
| 2026-04-20 14:57 | 51.16609 | -0.56454 | 4447 ft | 280 kts | 247° |
| 2026-04-20 14:57 | 51.15847 | -0.59296 | 5423 ft | 280 kts | 247° |
| 2026-04-20 14:58 | 51.15081 | -0.62172 | 6226 ft | 284 kts | 248° |
| 2026-04-20 14:58 | 51.14313 | -0.65069 | 7113 ft | 283 kts | 249° |
| 2026-04-20 14:58 | 51.13542 | -0.67982 | 7892 ft | 286 kts | 248° |
| 2026-04-20 14:58 | 51.12778 | -0.70858 | 8730 ft | 286 kts | 249° |
| 2026-04-20 14:59 | 51.11997 | -0.73791 | 9477 ft | 289 kts | 248° |
| 2026-04-20 14:59 | 51.11206 | -0.76748 | 10243 ft | 291 kts | 250° |
| 2026-04-20 14:59 | 51.10399 | -0.79768 | 10646 ft | 307 kts | 248° |
| 2026-04-20 14:59 | 51.09533 | -0.83004 | 10787 ft | 329 kts | 249° |
| 2026-04-20 15:00 | 51.08605 | -0.86460 | 10914 ft | 350 kts | 248° |
| 2026-04-20 15:00 | 51.07621 | -0.90100 | 11281 ft | 362 kts | 249° |
| 2026-04-20 15:00 | 51.06623 | -0.93791 | 11947 ft | 364 kts | 248° |
| 2026-04-20 15:00 | 51.05619 | -0.97496 | 12648 ft | 366 kts | 249° |
| 2026-04-20 15:01 | 51.04610 | -1.01220 | 13365 ft | 368 kts | 249° |
| 2026-04-20 15:01 | 51.03595 | -1.04966 | 14053 ft | 370 kts | 249° |
| 2026-04-20 15:01 | 51.02573 | -1.08731 | 14660 ft | 372 kts | 249° |
| 2026-04-20 15:01 | 51.01546 | -1.12508 | 15250 ft | 374 kts | 249° |
| 2026-04-20 15:02 | 51.00511 | -1.16310 | 15836 ft | 376 kts | 250° |
| 2026-04-20 15:02 | 50.99467 | -1.20130 | 16412 ft | 378 kts | 250° |
| 2026-04-20 15:02 | 50.98416 | -1.23971 | 16982 ft | 380 kts | 250° |
| 2026-04-20 15:02 | 50.97359 | -1.27833 | 17550 ft | 382 kts | 250° |
| 2026-04-20 15:03 | 50.96126 | -1.31604 | 18094 ft | 389 kts | 242° |
| 2026-04-20 15:03 | 50.94431 | -1.35016 | 18618 ft | 399 kts | 231° |
| 2026-04-20 15:03 | 50.92294 | -1.37891 | 19097 ft | 408 kts | 219° |
| 2026-04-20 15:03 | 50.89907 | -1.40353 | 19564 ft | 411 kts | 219° |
| 2026-04-20 15:04 | 50.87507 | -1.42830 | 20047 ft | 412 kts | 219° |
| 2026-04-20 15:04 | 50.85112 | -1.45319 | 20529 ft | 413 kts | 219° |
| 2026-04-20 15:04 | 50.82740 | -1.47790 | 21004 ft | 414 kts | 219° |
| 2026-04-20 15:04 | 50.80296 | -1.50342 | 21480 ft | 416 kts | 219° |
| 2026-04-20 15:05 | 50.77909 | -1.52830 | 21946 ft | 418 kts | 220° |
| 2026-04-20 15:05 | 50.75471 | -1.55360 | 22405 ft | 420 kts | 220° |
| 2026-04-20 15:05 | 50.73020 | -1.57891 | 22858 ft | 422 kts | 220° |
| 2026-04-20 15:05 | 50.70553 | -1.60436 | 23288 ft | 424 kts | 220° |
| 2026-04-20 15:06 | 50.68082 | -1.62988 | 23733 ft | 426 kts | 220° |
| 2026-04-20 15:06 | 50.65595 | -1.65550 | 24102 ft | 428 kts | 220° |
| 2026-04-20 15:06 | 50.63092 | -1.68120 | 24432 ft | 429 kts | 220° |
| 2026-04-20 15:06 | 50.60584 | -1.70691 | 24803 ft | 431 kts | 220° |
| 2026-04-20 15:07 | 50.58069 | -1.73262 | 25148 ft | 432 kts | 220° |
| 2026-04-20 15:07 | 50.55538 | -1.75845 | 25498 ft | 434 kts | 220° |
| 2026-04-20 15:07 | 50.53002 | -1.78435 | 25836 ft | 435 kts | 220° |
| 2026-04-20 15:07 | 50.50455 | -1.81033 | 26158 ft | 437 kts | 220° |
| 2026-04-20 15:08 | 50.47905 | -1.83635 | 26481 ft | 438 kts | 220° |
| 2026-04-20 15:08 | 50.45342 | -1.86252 | 26782 ft | 440 kts | 219° |
| 2026-04-20 15:08 | 50.42804 | -1.88840 | 27098 ft | 442 kts | 219° |
| 2026-04-20 15:08 | 50.40225 | -1.91463 | 27208 ft | 438 kts | 219° |
| 2026-04-20 15:09 | 50.37682 | -1.94036 | 27252 ft | 433 kts | 219° |
| 2026-04-20 15:09 | 50.35155 | -1.96588 | 27253 ft | 431 kts | 219° |
| 2026-04-20 15:09 | 50.32636 | -1.99137 | 27253 ft | 430 kts | 219° |
| 2026-04-20 15:09 | 50.30123 | -2.01683 | 27252 ft | 430 kts | 219° |
| 2026-04-20 15:10 | 50.27587 | -2.04193 | 27246 ft | 433 kts | 216° |
| 2026-04-20 15:10 | 50.24837 | -2.06202 | 27247 ft | 441 kts | 206° |
| 2026-04-20 15:10 | 50.21852 | -2.07490 | 27248 ft | 450 kts | 197° |
| 2026-04-20 15:10 | 50.18718 | -2.08034 | 27249 ft | 456 kts | 191° |
| 2026-04-20 15:11 | 50.15556 | -2.08422 | 27230 ft | 455 kts | 191° |
| 2026-04-20 15:11 | 50.12402 | -2.08814 | 27230 ft | 455 kts | 191° |
| 2026-04-20 15:11 | 50.09247 | -2.09212 | 27232 ft | 454 kts | 191° |
| 2026-04-20 15:11 | 50.06100 | -2.09616 | 27232 ft | 454 kts | 191° |
| 2026-04-20 15:12 | 50.02952 | -2.10027 | 27233 ft | 454 kts | 191° |
| 2026-04-20 15:12 | 49.99824 | -2.10573 | 27231 ft | 449 kts | 197° |
| 2026-04-20 15:12 | 49.96825 | -2.11758 | 27234 ft | 441 kts | 205° |
| 2026-04-20 15:12 | 49.94000 | -2.13533 | 27205 ft | 436 kts | 211° |
| 2026-04-20 15:13 | 49.91216 | -2.15436 | 27206 ft | 437 kts | 211° |
| 2026-04-20 15:13 | 49.88471 | -2.17308 | 27209 ft | 437 kts | 211° |
| 2026-04-20 15:13 | 49.85690 | -2.19201 | 27213 ft | 437 kts | 211° |
| 2026-04-20 15:13 | 49.82905 | -2.21093 | 27213 ft | 437 kts | 211° |
| 2026-04-20 15:14 | 49.80125 | -2.22975 | 27206 ft | 436 kts | 210° |
| 2026-04-20 15:14 | 49.77344 | -2.24856 | 27209 ft | 436 kts | 210° |
| 2026-04-20 15:14 | 49.74562 | -2.26734 | 27191 ft | 436 kts | 210° |
| 2026-04-20 15:14 | 49.71776 | -2.28617 | 27172 ft | 436 kts | 210° |
| 2026-04-20 15:15 | 49.68992 | -2.30497 | 27179 ft | 437 kts | 210° |
| 2026-04-20 15:15 | 49.66204 | -2.32374 | 27183 ft | 437 kts | 210° |
| 2026-04-20 15:15 | 49.63416 | -2.34248 | 27188 ft | 437 kts | 210° |
| 2026-04-20 15:15 | 49.60627 | -2.36120 | 27193 ft | 437 kts | 210° |
| 2026-04-20 15:16 | 49.57842 | -2.37990 | 27196 ft | 437 kts | 210° |
| 2026-04-20 15:16 | 49.55049 | -2.39865 | 27181 ft | 437 kts | 210° |
| 2026-04-20 15:16 | 49.52299 | -2.41710 | 27181 ft | 437 kts | 210° |
| 2026-04-20 15:16 | 49.49471 | -2.43602 | 27147 ft | 437 kts | 209° |
| 2026-04-20 15:17 | 49.46683 | -2.45462 | 27154 ft | 437 kts | 209° |
| 2026-04-20 15:17 | 49.43889 | -2.47321 | 27161 ft | 437 kts | 209° |
| 2026-04-20 15:17 | 49.41136 | -2.49154 | 27167 ft | 437 kts | 209° |
| 2026-04-20 15:17 | 49.38347 | -2.51010 | 27168 ft | 437 kts | 209° |
| 2026-04-20 15:18 | 49.35561 | -2.52865 | 27171 ft | 437 kts | 209° |
| 2026-04-20 15:18 | 49.32771 | -2.54719 | 27172 ft | 437 kts | 209° |
| 2026-04-20 15:18 | 49.29980 | -2.56571 | 27175 ft | 437 kts | 209° |
| 2026-04-20 15:18 | 49.27191 | -2.58418 | 27163 ft | 437 kts | 209° |
| 2026-04-20 15:19 | 49.24403 | -2.60264 | 27165 ft | 437 kts | 209° |
| 2026-04-20 15:19 | 49.21607 | -2.62111 | 27166 ft | 437 kts | 209° |
| 2026-04-20 15:19 | 49.18813 | -2.63953 | 27169 ft | 437 kts | 209° |
| 2026-04-20 15:19 | 49.16012 | -2.65796 | 27136 ft | 438 kts | 209° |
| 2026-04-20 15:20 | 49.13211 | -2.67637 | 26877 ft | 439 kts | 209° |
| 2026-04-20 15:20 | 49.10404 | -2.69483 | 26636 ft | 439 kts | 209° |
| 2026-04-20 15:20 | 49.07606 | -2.71323 | 26104 ft | 438 kts | 209° |
| 2026-04-20 15:20 | 49.04801 | -2.73165 | 25155 ft | 441 kts | 208° |
| 2026-04-20 15:21 | 49.01960 | -2.75034 | 24120 ft | 447 kts | 208° |
| 2026-04-20 15:21 | 48.99112 | -2.76899 | 23410 ft | 444 kts | 208° |
| 2026-04-20 15:21 | 48.96283 | -2.78740 | 22667 ft | 440 kts | 208° |
| 2026-04-20 15:21 | 48.93480 | -2.80557 | 21955 ft | 436 kts | 208° |
| 2026-04-20 15:22 | 48.91638 | -2.81750 | 21488 ft | 433 kts | 207° |
| 2026-04-20 15:22 | 48.88888 | -2.83533 | 20705 ft | 426 kts | 207° |
| 2026-04-20 15:22 | 48.86179 | -2.85288 | 19672 ft | 421 kts | 207° |
| 2026-04-20 15:22 | 48.83503 | -2.87024 | 18703 ft | 415 kts | 207° |
| 2026-04-20 15:23 | 48.80864 | -2.88744 | 17631 ft | 410 kts | 206° |
| 2026-04-20 15:23 | 48.78267 | -2.90483 | 16591 ft | 404 kts | 210° |
| 2026-04-20 15:23 | 48.75881 | -2.92638 | 15591 ft | 395 kts | 217° |
| 2026-04-20 15:23 | 48.73783 | -2.95275 | 14583 ft | 389 kts | 226° |
| 2026-04-20 15:24 | 48.72006 | -2.98313 | 13555 ft | 384 kts | 235° |
| 2026-04-20 15:24 | 48.70567 | -3.01687 | 12529 ft | 379 kts | 244° |
| 2026-04-20 15:24 | 48.69501 | -3.05311 | 12083 ft | 378 kts | 251° |
| 2026-04-20 15:24 | 48.68738 | -3.09127 | 11829 ft | 383 kts | 257° |
| 2026-04-20 15:25 | 48.68083 | -3.13216 | 11693 ft | 413 kts | 257° |
| 2026-04-20 15:25 | 48.67424 | -3.17325 | 12606 ft | 388 kts | 257° |
| 2026-04-20 15:25 | 48.66772 | -3.21368 | 12623 ft | 410 kts | 257° |
| 2026-04-20 15:25 | 48.66087 | -3.25626 | 13014 ft | 415 kts | 257° |
| 2026-04-20 15:26 | 48.65414 | -3.29814 | 13468 ft | 411 kts | 257° |
| 2026-04-20 15:26 | 48.64736 | -3.34020 | 13731 ft | 415 kts | 257° |
| 2026-04-20 15:26 | 48.64051 | -3.38261 | 13578 ft | 415 kts | 257° |
| 2026-04-20 15:26 | 48.63368 | -3.42482 | 13450 ft | 403 kts | 257° |
| 2026-04-20 15:27 | 48.62731 | -3.46397 | 13075 ft | 369 kts | 257° |
| 2026-04-20 15:27 | 48.62143 | -3.50033 | 12484 ft | 345 kts | 257° |
| 2026-04-20 15:27 | 48.61635 | -3.53477 | 11892 ft | 327 kts | 259° |
| 2026-04-20 15:27 | 48.61206 | -3.56798 | 11109 ft | 317 kts | 261° |
| 2026-04-20 15:28 | 48.60897 | -3.60054 | 10360 ft | 308 kts | 263° |
| 2026-04-20 15:28 | 48.60522 | -3.63198 | 9613 ft | 301 kts | 256° |
| 2026-04-20 15:28 | 48.59972 | -3.66213 | 8858 ft | 294 kts | 253° |
| 2026-04-20 15:28 | 48.59364 | -3.69131 | 8128 ft | 288 kts | 251° |
| 2026-04-20 15:29 | 48.58740 | -3.71950 | 7436 ft | 284 kts | 250° |
| 2026-04-20 15:29 | 48.58099 | -3.74763 | 6837 ft | 285 kts | 249° |
| 2026-04-20 15:29 | 48.57405 | -3.77537 | 6674 ft | 282 kts | 247° |
| 2026-04-20 15:29 | 48.56701 | -3.80293 | 6550 ft | 281 kts | 247° |
| 2026-04-20 15:30 | 48.56031 | -3.83063 | 6416 ft | 281 kts | 250° |
| 2026-04-20 15:30 | 48.55408 | -3.85848 | 6284 ft | 279 kts | 250° |
| 2026-04-20 15:30 | 48.54819 | -3.88645 | 6155 ft | 281 kts | 250° |
| 2026-04-20 15:30 | 48.54252 | -3.91452 | 6025 ft | 279 kts | 251° |
| 2026-04-20 15:31 | 48.53696 | -3.94262 | 5902 ft | 278 kts | 251° |
| 2026-04-20 15:31 | 48.53147 | -3.97059 | 5765 ft | 277 kts | 251° |
| 2026-04-20 15:31 | 48.52604 | -3.99841 | 5635 ft | 276 kts | 250° |
| 2026-04-20 15:31 | 48.52062 | -4.02609 | 5511 ft | 274 kts | 252° |
| 2026-04-20 15:32 | 48.51520 | -4.05364 | 5361 ft | 274 kts | 251° |
| 2026-04-20 15:32 | 48.50978 | -4.08112 | 5236 ft | 273 kts | 251° |
| 2026-04-20 15:32 | 48.50434 | -4.10863 | 5110 ft | 274 kts | 250° |
| 2026-04-20 15:32 | 48.49893 | -4.13593 | 4979 ft | 268 kts | 251° |
| 2026-04-20 15:33 | 48.49370 | -4.16230 | 4839 ft | 257 kts | 250° |
| 2026-04-20 15:33 | 48.48864 | -4.18778 | 4698 ft | 249 kts | 249° |
| 2026-04-20 15:33 | 48.48374 | -4.21249 | 4562 ft | 243 kts | 251° |
| 2026-04-20 15:33 | 48.47882 | -4.23704 | 4423 ft | 246 kts | 251° |
| 2026-04-20 15:34 | 48.47390 | -4.26160 | 4294 ft | 245 kts | 250° |
| 2026-04-20 15:34 | 48.46894 | -4.28626 | 4170 ft | 248 kts | 249° |
| 2026-04-20 15:34 | 48.46400 | -4.31086 | 4046 ft | 247 kts | 250° |
| 2026-04-20 15:34 | 48.45906 | -4.33546 | 4000 ft | 245 kts | 248° |
| 2026-04-20 15:35 | 48.45076 | -4.35743 | 4008 ft | 240 kts | 226° |
| 2026-04-20 15:35 | 48.43826 | -4.37369 | 4005 ft | 237 kts | 212° |
| 2026-04-20 15:35 | 48.42487 | -4.38821 | 4009 ft | 237 kts | 213° |
| 2026-04-20 15:35 | 48.41141 | -4.40247 | 4011 ft | 237 kts | 210° |
| 2026-04-20 15:36 | 48.39797 | -4.41687 | 4008 ft | 236 kts | 210° |
| 2026-04-20 15:36 | 48.38453 | -4.43114 | 4011 ft | 237 kts | 211° |
| 2026-04-20 15:36 | 48.37128 | -4.44577 | 4009 ft | 237 kts | 214° |
| 2026-04-20 15:36 | 48.35860 | -4.46097 | 4034 ft | 225 kts | 216° |
| 2026-04-20 15:37 | 48.34663 | -4.47543 | 4007 ft | 219 kts | 215° |
| 2026-04-20 15:37 | 48.33468 | -4.48973 | 4010 ft | 220 kts | 215° |
| 2026-04-20 15:37 | 48.32353 | -4.50550 | 3922 ft | 224 kts | 232° |
| 2026-04-20 15:37 | 48.31817 | -4.52728 | 3785 ft | 226 kts | 265° |
| 2026-04-20 15:38 | 48.32079 | -4.55039 | 3727 ft | 227 kts | 297° |
| 2026-04-20 15:38 | 48.33070 | -4.56829 | 3676 ft | 223 kts | 327° |
| 2026-04-20 15:38 | 48.34369 | -4.58106 | 3632 ft | 223 kts | 330° |
| 2026-04-20 15:38 | 48.35655 | -4.59367 | 3573 ft | 224 kts | 329° |
| 2026-04-20 15:39 | 48.36959 | -4.60650 | 3249 ft | 224 kts | 330° |
| 2026-04-20 15:39 | 48.38369 | -4.61486 | 3089 ft | 216 kts | 0° |
| 2026-04-20 15:39 | 48.39777 | -4.61035 | 2872 ft | 204 kts | 35° |
| 2026-04-20 15:39 | 48.40740 | -4.59566 | 2551 ft | 196 kts | 65° |
| 2026-04-20 15:40 | 48.41203 | -4.57708 | 2249 ft | 185 kts | 73° |
| 2026-04-20 15:40 | 48.41611 | -4.55906 | 1958 ft | 179 kts | 72° |
| 2026-04-20 15:40 | 48.41991 | -4.54226 | 1727 ft | 160 kts | 73° |
| 2026-04-20 15:40 | 48.42329 | -4.52735 | 1527 ft | 142 kts | 71° |
| 2026-04-20 15:41 | 48.42641 | -4.51351 | 1337 ft | 137 kts | 71° |
| 2026-04-20 15:41 | 48.42944 | -4.50003 | 1151 ft | 136 kts | 72° |
| 2026-04-20 15:41 | 48.43249 | -4.48659 | 990 ft | 135 kts | 71° |
| 2026-04-20 15:41 | 48.43529 | -4.47316 | 821 ft | 136 kts | 71° |
| 2026-04-20 15:42 | 48.43841 | -4.45984 | 654 ft | 134 kts | 66° |
| 2026-04-20 15:42 | 48.44146 | -4.44651 | 491 ft | 136 kts | 67° |
| 2026-04-20 15:42 | 48.44450 | -4.43320 | 319 ft | 131 kts | 68° |
| 2026-04-20 15:42 | 48.44720 | -4.42166 | 320 ft | 95 kts | 72° |
| 2026-04-20 15:43 | 48.44874 | -4.41506 | 318 ft | 36 kts | 69° |
| 2026-04-20 15:43 | 48.44890 | -4.41376 | 318 ft | 10 kts | 111° |
| 2026-04-20 15:43 | 48.44843 | -4.41326 | 318 ft | 0 kts | 159° |
| 2026-04-20 15:44 | 48.44830 | -4.41318 | 316 ft | 6 kts | 159° |
| 2026-04-20 15:44 | 48.44786 | -4.41303 | 318 ft | 7 kts | 195° |
| 2026-04-20 15:45 | 48.44760 | -4.41364 | 318 ft | 8 kts | 251° |
| 2026-04-20 15:45 | 48.44744 | -4.41450 | 318 ft | 9 kts | 254° |
| 2026-04-20 15:45 | 48.44725 | -4.41548 | 318 ft | 10 kts | 252° |
| 2026-04-20 15:45 | 48.44696 | -4.41611 | 318 ft | 8 kts | 219° |
| 2026-04-20 15:46 | 48.44650 | -4.41659 | 318 ft | 9 kts | 219° |
| 2026-04-20 15:46 | 48.44638 | -4.41642 | 318 ft | 1 kts | 55° |
| 2026-04-20 15:46 | 48.44657 | -4.41614 | 318 ft | 4 kts | 60° |
| 2026-04-20 15:46 | 48.44641 | -4.41577 | 318 ft | 5 kts | 145° |
| 2026-04-20 15:47 | 48.44609 | -4.41558 | 317 ft | 0 kts | 160° |